Time;durP1;ratioP1;P1;durP2;ratioP2;P2;SDS_P1;SDS_P2;PMS_P1;PMS_P2;Temp;Humidity;BMP_temperature;BMP_pressure;BME280_temperature;BME280_humidity;BME280_pressure;Samples;Min_cycle;Max_cycle;Signal;HPM_P1;HPM_P2
2023/03/14 00:00:46;;;;;;;7.75;3.50;;;11.20;99.90;;;;;;4996716;28;20169;-78
2023/03/14 00:03:11;;;;;;;4.78;3.40;;;11.20;99.90;;;;;;4997372;28;20235;-79
2023/03/14 00:05:37;;;;;;;3.30;3.00;;;11.20;99.90;;;;;;4997540;28;20229;-79
2023/03/14 00:08:03;;;;;;;5.65;3.83;;;11.20;99.90;;;;;;4995719;28;20188;-78
2023/03/14 00:10:28;;;;;;;5.25;3.65;;;11.20;99.90;;;;;;4979062;28;20184;-79
2023/03/14 00:12:54;;;;;;;5.05;3.00;;;11.20;99.90;;;;;;4978622;28;20271;-79
2023/03/14 00:15:20;;;;;;;4.18;3.30;;;11.20;99.90;;;;;;4978658;28;20196;-79
2023/03/14 00:17:45;;;;;;;7.88;3.40;;;11.20;99.90;;;;;;4994988;28;20220;-79
2023/03/14 00:20:12;;;;;;;3.60;3.17;;;11.10;99.90;;;;;;4978873;28;20661;-78
2023/03/14 00:22:38;;;;;;;5.47;3.35;;;11.10;99.90;;;;;;4978734;28;20547;-79
2023/03/14 00:25:05;;;;;;;6.45;3.47;;;11.10;99.90;;;;;;4978640;28;20175;-78
2023/03/14 00:27:31;;;;;;;6.88;3.50;;;11.10;99.90;;;;;;4996433;28;20219;-78
2023/03/14 00:29:57;;;;;;;10.20;3.80;;;11.10;99.90;;;;;;4996021;28;20184;-78
2023/03/14 00:32:23;;;;;;;5.63;3.55;;;11.10;99.90;;;;;;4995825;28;20721;-78
2023/03/14 00:34:49;;;;;;;5.95;3.80;;;11.00;99.90;;;;;;4979640;28;20212;-79
2023/03/14 00:37:15;;;;;;;7.60;3.40;;;11.00;99.90;;;;;;4998598;28;20247;-78
2023/03/14 00:39:41;;;;;;;5.90;3.88;;;11.00;99.90;;;;;;4980115;28;20173;-78
2023/03/14 00:42:07;;;;;;;3.70;3.30;;;11.00;99.90;;;;;;4980742;28;20177;-79
2023/03/14 00:44:32;;;;;;;7.45;3.63;;;11.00;99.90;;;;;;4996400;28;20183;-79
2023/03/14 00:46:58;;;;;;;7.00;3.63;;;11.10;99.90;;;;;;4982134;28;20204;-79
2023/03/14 00:49:24;;;;;;;3.42;3.13;;;11.10;99.90;;;;;;5000187;28;20323;-79
2023/03/14 00:51:51;;;;;;;4.28;3.28;;;11.10;99.90;;;;;;5000845;28;20238;-79
2023/03/14 00:54:21;;;;;;;9.60;3.47;;;11.10;99.90;;;;;;5000644;28;20204;-78
2023/03/14 00:56:47;;;;;;;6.03;3.30;;;11.20;99.90;;;;;;4982439;28;20206;-78
2023/03/14 00:59:13;;;;;;;8.93;3.50;;;11.20;99.90;;;;;;4999505;28;20219;-78
2023/03/14 01:01:39;;;;;;;6.03;3.80;;;11.30;99.90;;;;;;4999662;28;20185;-78
2023/03/14 01:04:05;;;;;;;6.22;3.60;;;11.30;99.90;;;;;;4999606;28;20184;-78
2023/03/14 01:06:31;;;;;;;8.10;3.40;;;11.30;99.90;;;;;;5001940;28;20196;-79
2023/03/14 01:08:57;;;;;;;5.82;3.63;;;11.30;99.90;;;;;;5004137;28;20176;-79
2023/03/14 01:11:29;;;;;;;7.45;3.35;;;11.30;99.90;;;;;;5001824;28;20650;-79
2023/03/14 01:13:56;;;;;;;5.57;3.20;;;11.30;99.90;;;;;;5001324;28;20231;-79
2023/03/14 01:16:23;;;;;;;7.00;3.10;;;11.30;99.90;;;;;;4982824;28;20200;-79
2023/03/14 01:18:50;;;;;;;9.35;3.90;;;11.30;99.90;;;;;;5000783;28;20208;-79
2023/03/14 01:21:19;;;;;;;9.25;3.33;;;11.30;99.90;;;;;;4985032;28;20180;-78
2023/03/14 01:23:45;;;;;;;6.18;3.40;;;11.30;99.90;;;;;;5000357;28;20255;-79
2023/03/14 01:26:13;;;;;;;4.07;3.30;;;11.30;99.90;;;;;;5000312;28;20200;-79
2023/03/14 01:28:40;;;;;;;7.70;3.70;;;11.30;99.90;;;;;;4981273;28;20180;-79
2023/03/14 01:31:07;;;;;;;8.15;3.67;;;11.40;99.90;;;;;;4982379;28;20252;-79
2023/03/14 01:33:33;;;;;;;7.03;3.88;;;11.30;99.90;;;;;;4981816;28;20215;-79
2023/03/14 01:36:01;;;;;;;7.22;3.72;;;11.00;99.90;;;;;;4982217;28;20300;-80
2023/03/14 01:38:28;;;;;;;6.57;3.28;;;10.60;99.90;;;;;;4983084;28;20679;-81
2023/03/14 01:40:54;;;;;;;4.33;3.33;;;10.00;99.90;;;;;;4983402;28;20188;-81
2023/03/14 01:43:20;;;;;;;6.15;3.78;;;9.40;99.90;;;;;;5001147;28;20183;-81
2023/03/14 01:46:01;;;;;;;7.10;3.53;;;9.00;99.90;;;;;;4983458;28;20207;-81
2023/03/14 01:48:30;;;;;;;9.27;4.67;;;8.80;99.90;;;;;;4999665;28;20184;-81
2023/03/14 01:50:57;;;;;;;10.23;3.80;;;8.70;99.90;;;;;;4983529;28;20532;-81
2023/03/14 01:53:23;;;;;;;7.33;3.97;;;8.70;99.90;;;;;;4983057;28;20208;-81
2023/03/14 01:55:52;;;;;;;8.33;3.57;;;8.60;99.90;;;;;;5000959;28;20223;-81
2023/03/14 01:58:19;;;;;;;6.77;3.77;;;8.60;99.90;;;;;;4982127;28;20216;-81
2023/03/14 02:00:46;;;;;;;4.90;3.60;;;8.50;99.90;;;;;;5000403;28;20200;-81
2023/03/14 02:03:16;;;;;;;5.03;3.57;;;8.50;99.90;;;;;;5000008;28;20188;-81
2023/03/14 02:05:43;;;;;;;3.73;3.20;;;8.40;99.90;;;;;;5000386;28;20200;-81
2023/03/14 02:08:17;;;;;;;8.43;3.70;;;8.30;99.90;;;;;;4982725;28;20184;-81
2023/03/14 02:10:48;;;;;;;5.13;3.53;;;8.30;99.90;;;;;;4999631;28;20161;-81
2023/03/14 02:13:16;;;;;;;3.57;3.30;;;8.20;99.90;;;;;;5000127;28;20254;-81
2023/03/14 02:15:42;;;;;;;6.83;3.60;;;8.20;99.90;;;;;;5000213;28;20188;-81
2023/03/14 02:18:09;;;;;;;6.20;3.80;;;8.20;99.90;;;;;;5000140;28;20255;-81
2023/03/14 02:21:02;;;;;;;7.43;4.23;;;8.20;99.90;;;;;;4982866;28;20259;-81
2023/03/14 02:23:52;;;;;;;8.63;3.47;;;8.10;99.90;;;;;;4982543;28;20227;-81
2023/03/14 02:26:26;;;;;;;4.30;3.30;;;8.10;99.90;;;;;;4998477;28;20200;-81
2023/03/14 02:28:53;;;;;;;6.30;3.67;;;8.20;99.90;;;;;;4981993;28;20173;-81
2023/03/14 02:31:21;;;;;;;5.10;3.83;;;8.20;99.90;;;;;;4999886;28;20176;-81
2023/03/14 02:33:47;;;;;;;8.50;3.57;;;8.20;99.90;;;;;;4999924;28;20269;-81
2023/03/14 02:36:14;;;;;;;5.57;3.57;;;8.20;99.90;;;;;;4982145;28;20572;-80
2023/03/14 02:38:46;;;;;;;8.53;4.00;;;8.20;99.90;;;;;;5000071;28;20201;-80
2023/03/14 02:41:12;;;;;;;10.83;3.87;;;8.20;99.90;;;;;;4999778;28;20165;-80
2023/03/14 02:43:38;;;;;;;5.20;3.67;;;8.20;99.90;;;;;;5000087;28;20176;-80
2023/03/14 02:46:05;;;;;;;7.07;4.63;;;8.30;99.90;;;;;;4982196;28;20200;-81
2023/03/14 02:48:36;;;;;;;9.80;3.80;;;8.30;99.90;;;;;;5000123;28;20172;-81
2023/03/14 02:51:02;;;;;;;10.13;4.13;;;8.30;99.90;;;;;;4982706;28;20235;-81
2023/03/14 02:53:31;;;;;;;7.23;4.10;;;8.30;99.90;;;;;;4981237;28;20223;-80
2023/03/14 02:55:57;;;;;;;6.13;3.67;;;8.30;99.90;;;;;;4980127;28;20295;-80
2023/03/14 02:58:23;;;;;;;9.07;3.87;;;8.40;99.90;;;;;;4982366;28;20641;-80
2023/03/14 03:00:49;;;;;;;15.63;3.97;;;8.40;99.90;;;;;;4979994;28;20182;-80
2023/03/14 03:03:15;;;;;;;7.93;4.13;;;8.40;99.90;;;;;;4997250;28;20181;-80
2023/03/14 03:05:42;;;;;;;6.90;4.13;;;8.40;99.90;;;;;;4979714;28;20255;-80
2023/03/14 03:08:08;;;;;;;6.30;3.77;;;8.50;99.90;;;;;;4979896;28;20188;-80
2023/03/14 03:10:34;;;;;;;5.60;3.80;;;8.40;99.90;;;;;;4997616;28;20616;-80
2023/03/14 03:13:00;;;;;;;8.17;4.10;;;8.40;99.90;;;;;;4980175;28;20184;-80
2023/03/14 03:15:26;;;;;;;5.10;3.63;;;8.40;99.90;;;;;;4997003;28;20229;-80
2023/03/14 03:17:52;;;;;;;4.17;3.80;;;8.40;99.90;;;;;;4980095;28;20211;-80
2023/03/14 03:20:18;;;;;;;7.23;3.70;;;8.40;99.90;;;;;;4980337;28;20180;-80
2023/03/14 03:22:43;;;;;;;7.63;4.37;;;8.50;99.90;;;;;;4980408;28;20204;-80
2023/03/14 03:25:10;;;;;;;7.53;3.23;;;8.50;99.90;;;;;;4980863;28;20255;-80
2023/03/14 03:27:37;;;;;;;6.63;3.43;;;8.50;99.90;;;;;;4979860;28;20195;-80
2023/03/14 03:30:05;;;;;;;7.87;3.73;;;8.60;99.90;;;;;;4979024;28;20184;-80
2023/03/14 03:32:32;;;;;;;6.93;3.57;;;8.60;99.90;;;;;;4997108;28;20234;-80
2023/03/14 03:34:57;;;;;;;12.83;3.97;;;8.60;99.90;;;;;;4997556;28;20215;-80
2023/03/14 03:37:24;;;;;;;6.77;3.80;;;8.60;99.90;;;;;;4998009;28;20271;-80
2023/03/14 03:39:52;;;;;;;7.70;3.80;;;8.70;99.90;;;;;;4979644;28;20176;-80
2023/03/14 03:42:19;;;;;;;4.23;3.53;;;8.80;99.90;;;;;;4997053;28;20184;-80
2023/03/14 03:44:44;;;;;;;8.43;4.10;;;8.80;99.90;;;;;;4998385;28;20173;-80
2023/03/14 03:47:10;;;;;;;4.87;3.50;;;8.80;99.90;;;;;;4980479;28;20255;-80
2023/03/14 03:49:36;;;;;;;6.20;3.47;;;8.90;99.90;;;;;;4997501;28;20648;-80
2023/03/14 03:52:02;;;;;;;5.73;3.70;;;8.90;99.90;;;;;;4980183;28;20180;-80
2023/03/14 03:54:28;;;;;;;4.10;3.50;;;9.00;99.90;;;;;;4980361;28;20211;-80
2023/03/14 03:56:54;;;;;;;4.83;3.30;;;9.00;99.90;;;;;;4997164;28;20215;-80
2023/03/14 03:59:20;;;;;;;7.17;3.37;;;9.00;99.90;;;;;;4980202;28;20203;-80
2023/03/14 04:01:46;;;;;;;5.23;3.40;;;9.00;99.90;;;;;;4979995;28;20180;-80
2023/03/14 04:04:13;;;;;;;8.70;3.63;;;9.00;99.90;;;;;;4997004;28;20212;-80
2023/03/14 04:06:39;;;;;;;11.30;3.80;;;9.00;99.90;;;;;;4979788;28;20681;-80
2023/03/14 04:09:04;;;;;;;3.97;3.30;;;9.00;99.90;;;;;;4979736;28;20177;-80
2023/03/14 04:11:30;;;;;;;6.43;3.30;;;9.10;99.90;;;;;;4996574;28;20223;-80
2023/03/14 04:13:56;;;;;;;4.53;3.60;;;9.10;99.90;;;;;;4979324;28;20601;-80
2023/03/14 04:16:24;;;;;;;8.40;4.03;;;9.10;99.90;;;;;;4997790;28;20199;-80
2023/03/14 04:18:50;;;;;;;11.53;3.77;;;9.20;99.90;;;;;;5002597;28;20204;-80
2023/03/14 04:21:17;;;;;;;5.10;3.40;;;9.10;99.90;;;;;;4986246;28;20186;-81
2023/03/14 04:23:43;;;;;;;5.20;3.70;;;9.00;99.90;;;;;;5006623;28;20223;-81
2023/03/14 04:26:09;;;;;;;6.87;3.90;;;8.90;99.90;;;;;;5005612;28;20200;-81
2023/03/14 04:28:38;;;;;;;6.47;3.20;;;8.80;99.90;;;;;;4988478;28;20215;-81
2023/03/14 04:31:20;;;;;;;7.40;3.60;;;8.70;99.90;;;;;;4993210;28;20267;-81
2023/03/14 04:33:46;;;;;;;5.00;3.53;;;8.60;99.90;;;;;;4987302;28;20681;-80
2023/03/14 04:36:13;;;;;;;6.40;3.33;;;8.50;99.90;;;;;;5004384;28;20200;-81
2023/03/14 04:38:38;;;;;;;5.20;3.47;;;8.40;99.90;;;;;;4987744;28;20176;-81
2023/03/14 04:41:04;;;;;;;3.93;3.30;;;8.30;99.90;;;;;;5012065;28;20179;-81
2023/03/14 04:43:30;;;;;;;5.73;3.60;;;8.20;99.90;;;;;;5017256;28;20176;-81
2023/03/14 04:45:57;;;;;;;3.60;3.30;;;8.20;99.90;;;;;;4991668;28;20200;-81
2023/03/14 04:48:24;;;;;;;4.27;3.70;;;8.10;99.90;;;;;;4990844;28;20180;-81
2023/03/14 04:50:50;;;;;;;3.80;3.50;;;8.10;99.90;;;;;;4990740;28;20219;-81
2023/03/14 04:53:17;;;;;;;4.03;3.60;;;8.00;99.90;;;;;;5008460;28;20200;-81
2023/03/14 04:55:47;;;;;;;4.00;3.20;;;8.00;99.90;;;;;;4989934;28;20201;-81
2023/03/14 04:58:12;;;;;;;4.40;3.60;;;8.00;99.90;;;;;;5005970;28;20180;-81
2023/03/14 05:00:38;;;;;;;5.73;3.70;;;8.00;99.90;;;;;;5007656;28;20184;-81
2023/03/14 05:03:04;;;;;;;8.10;4.20;;;7.90;99.90;;;;;;4989279;28;20203;-81
2023/03/14 05:05:29;;;;;;;4.07;3.70;;;7.90;99.90;;;;;;5008140;28;20184;-81
2023/03/14 05:07:55;;;;;;;4.20;3.70;;;7.90;99.90;;;;;;4988725;28;20199;-81
2023/03/14 05:10:21;;;;;;;4.90;3.93;;;8.00;99.90;;;;;;5006036;28;20633;-82
2023/03/14 05:12:46;;;;;;;8.23;4.00;;;7.90;99.90;;;;;;4989598;28;20629;-82
2023/03/14 05:15:12;;;;;;;5.67;4.17;;;7.90;99.90;;;;;;4988893;28;20208;-82
2023/03/14 05:17:38;;;;;;;10.10;4.10;;;7.90;99.90;;;;;;5005771;28;20185;-82
2023/03/14 05:20:12;;;;;;;5.50;4.30;;;8.00;99.90;;;;;;5006390;28;20556;-82
2023/03/14 05:22:39;;;;;;;4.80;3.90;;;8.00;99.90;;;;;;5005785;28;20243;-82
2023/03/14 05:25:05;;;;;;;14.53;5.00;;;8.00;99.90;;;;;;4987235;28;20176;-82
2023/03/14 05:27:31;;;;;;;11.30;4.67;;;8.00;99.90;;;;;;4987543;28;20181;-81
2023/03/14 05:29:57;;;;;;;6.57;4.87;;;8.10;99.90;;;;;;4987392;28;20691;-81
2023/03/14 05:32:23;;;;;;;8.50;5.33;;;8.10;99.90;;;;;;4985163;28;20183;-81
2023/03/14 05:34:49;;;;;;;10.93;4.60;;;8.10;99.90;;;;;;5001467;28;20204;-81
2023/03/14 05:37:14;;;;;;;8.97;4.93;;;8.10;99.90;;;;;;5001888;28;20196;-81
2023/03/14 05:39:40;;;;;;;14.33;5.23;;;8.20;99.90;;;;;;5002455;28;20180;-81
2023/03/14 05:42:06;;;;;;;9.53;4.70;;;8.20;99.90;;;;;;4984080;28;20200;-81
2023/03/14 05:44:31;;;;;;;9.37;4.73;;;8.20;99.90;;;;;;4983683;28;20185;-81
2023/03/14 05:46:57;;;;;;;7.87;4.87;;;8.20;99.90;;;;;;4984086;28;20210;-81
2023/03/14 05:49:23;;;;;;;9.00;4.70;;;8.30;99.90;;;;;;4983796;28;20181;-81
2023/03/14 05:51:48;;;;;;;11.30;4.80;;;8.30;99.90;;;;;;4983539;28;20657;-81
2023/03/14 05:54:14;;;;;;;8.00;4.53;;;8.30;99.90;;;;;;5000752;28;20255;-81
2023/03/14 05:56:40;;;;;;;6.07;4.37;;;8.30;99.90;;;;;;5000778;28;20598;-81
2023/03/14 05:59:08;;;;;;;9.03;4.50;;;8.30;99.90;;;;;;5000590;28;20236;-81
2023/03/14 06:01:34;;;;;;;9.50;5.20;;;8.30;99.90;;;;;;5000152;28;20172;-81
2023/03/14 06:04:00;;;;;;;9.53;4.70;;;8.40;99.90;;;;;;5001028;28;20176;-81
2023/03/14 06:06:26;;;;;;;10.40;4.37;;;8.40;99.90;;;;;;4983121;28;20207;-81
2023/03/14 06:08:51;;;;;;;5.80;3.97;;;8.40;99.90;;;;;;4999849;28;20169;-81
2023/03/14 06:11:17;;;;;;;7.87;4.10;;;8.40;99.90;;;;;;4981936;28;20267;-81
2023/03/14 06:13:43;;;;;;;8.40;4.37;;;8.50;99.90;;;;;;4982071;28;20580;-81
2023/03/14 06:16:09;;;;;;;5.63;3.87;;;8.50;99.90;;;;;;5000019;28;20192;-81
2023/03/14 06:18:34;;;;;;;5.97;3.73;;;8.50;99.90;;;;;;5001009;28;20200;-81
2023/03/14 06:21:00;;;;;;;10.00;3.97;;;8.50;99.90;;;;;;5001225;28;20169;-81
2023/03/14 06:23:26;;;;;;;4.63;4.07;;;8.50;99.90;;;;;;4999791;28;20246;-80
2023/03/14 06:25:52;;;;;;;8.53;4.03;;;8.50;99.90;;;;;;4980611;28;20200;-81
2023/03/14 06:28:18;;;;;;;6.33;4.13;;;8.60;99.90;;;;;;4997570;28;20244;-81
2023/03/14 06:30:44;;;;;;;5.73;4.60;;;8.60;99.90;;;;;;4979648;28;20181;-81
2023/03/14 06:33:09;;;;;;;4.60;4.00;;;8.60;99.90;;;;;;4979497;28;20220;-80
2023/03/14 06:35:35;;;;;;;4.67;3.60;;;8.60;99.90;;;;;;4979357;28;20196;-81
2023/03/14 06:38:01;;;;;;;8.57;3.70;;;8.60;99.90;;;;;;4996898;28;20172;-81
2023/03/14 06:40:27;;;;;;;6.10;3.87;;;8.60;99.90;;;;;;4979612;28;20188;-80
2023/03/14 06:42:53;;;;;;;3.63;3.33;;;8.60;99.90;;;;;;4998167;28;20172;-80
2023/03/14 06:45:18;;;;;;;4.40;3.70;;;8.60;99.90;;;;;;4979806;28;20176;-80
2023/03/14 06:47:44;;;;;;;5.73;3.50;;;8.70;99.90;;;;;;4979956;28;20184;-80
2023/03/14 06:50:10;;;;;;;4.80;3.50;;;8.70;99.90;;;;;;4979138;28;20664;-80
2023/03/14 06:52:36;;;;;;;3.93;3.53;;;8.80;99.90;;;;;;4996978;28;20172;-80
2023/03/14 06:55:02;;;;;;;3.67;3.37;;;8.80;99.90;;;;;;4995670;28;20678;-80
2023/03/14 06:57:28;;;;;;;3.23;3.03;;;8.80;99.90;;;;;;4979519;28;20255;-80
2023/03/14 06:59:54;;;;;;;4.17;3.20;;;8.80;99.90;;;;;;4997128;28;20172;-80
2023/03/14 07:02:21;;;;;;;6.67;3.70;;;8.80;99.90;;;;;;4979961;28;20179;-80
2023/03/14 07:04:47;;;;;;;3.53;3.27;;;8.80;99.90;;;;;;4996824;28;20264;-80
2023/03/14 07:07:13;;;;;;;3.17;2.87;;;8.90;99.90;;;;;;4980055;28;20641;-80
2023/03/14 07:09:39;;;;;;;3.13;3.03;;;8.90;99.90;;;;;;4997352;28;20664;-80
2023/03/14 07:12:04;;;;;;;3.57;3.07;;;9.00;99.90;;;;;;4997862;28;20625;-80
2023/03/14 07:14:31;;;;;;;3.50;3.20;;;9.10;99.90;;;;;;4979929;28;20200;-80
2023/03/14 07:16:56;;;;;;;3.43;3.20;;;9.10;99.90;;;;;;4996939;28;20589;-80
2023/03/14 07:19:22;;;;;;;3.07;2.87;;;9.10;99.90;;;;;;4997726;28;20184;-80
2023/03/14 07:21:48;;;;;;;3.20;3.00;;;9.10;99.90;;;;;;4997210;28;20176;-80
2023/03/14 07:24:14;;;;;;;3.90;3.13;;;9.00;99.90;;;;;;4997394;28;20683;-80
2023/03/14 07:26:39;;;;;;;3.43;3.13;;;9.00;99.90;;;;;;4980654;28;20696;-80
2023/03/14 07:29:05;;;;;;;5.43;3.07;;;9.00;99.90;;;;;;4997346;28;20260;-80
2023/03/14 07:31:31;;;;;;;5.63;3.50;;;9.00;99.90;;;;;;4997520;28;20583;-80
2023/03/14 07:33:57;;;;;;;3.40;3.20;;;9.00;99.90;;;;;;4997928;28;20255;-80
2023/03/14 07:36:22;;;;;;;3.17;2.97;;;8.90;99.90;;;;;;4998068;28;20188;-80
2023/03/14 07:38:48;;;;;;;3.27;2.97;;;8.90;99.90;;;;;;4980001;28;20268;-80
2023/03/14 07:41:14;;;;;;;3.50;3.20;;;8.90;99.90;;;;;;4997534;28;20172;-80
2023/03/14 07:43:40;;;;;;;3.20;3.00;;;8.90;99.90;;;;;;4980693;28;20719;-80
2023/03/14 07:46:06;;;;;;;3.60;3.30;;;8.90;99.90;;;;;;4997109;28;20196;-80
2023/03/14 07:48:32;;;;;;;3.00;2.90;;;9.00;99.90;;;;;;4997343;28;20656;-80
2023/03/14 07:50:58;;;;;;;3.10;3.00;;;9.00;99.90;;;;;;4983376;28;20188;-80
2023/03/14 07:53:25;;;;;;;3.10;2.90;;;9.10;99.90;;;;;;4979951;28;20268;-80
2023/03/14 07:55:52;;;;;;;3.40;3.10;;;9.20;99.90;;;;;;4979241;28;20214;-80
2023/03/14 07:58:18;;;;;;;3.00;2.90;;;9.30;99.90;;;;;;4979401;28;20180;-80
2023/03/14 08:00:43;;;;;;;3.40;3.10;;;9.40;99.90;;;;;;4978350;28;20183;-80
2023/03/14 08:03:09;;;;;;;3.20;3.00;;;9.50;99.90;;;;;;4978880;28;20180;-80
2023/03/14 08:05:36;;;;;;;3.40;3.10;;;9.50;99.90;;;;;;4979455;28;20219;-81
2023/03/14 08:08:02;;;;;;;3.37;3.17;;;9.50;99.90;;;;;;4997159;28;20189;-80
2023/03/14 08:10:28;;;;;;;3.00;2.90;;;9.50;99.90;;;;;;4996726;28;20345;-80
2023/03/14 08:12:56;;;;;;;3.33;3.13;;;9.50;99.90;;;;;;4998121;28;20177;-80
2023/03/14 08:15:22;;;;;;;3.23;3.07;;;9.40;99.90;;;;;;5005042;28;20204;-80
2023/03/14 08:17:53;;;;;;;3.30;3.10;;;9.40;99.90;;;;;;4986287;28;20188;-80
2023/03/14 08:20:23;;;;;;;3.90;3.10;;;9.30;99.90;;;;;;4982080;28;20200;-80
2023/03/14 08:22:49;;;;;;;3.33;3.13;;;9.30;99.90;;;;;;4998142;28;20216;-80
2023/03/14 08:25:15;;;;;;;3.70;3.50;;;9.30;99.90;;;;;;4997279;28;20196;-80
2023/03/14 08:27:41;;;;;;;3.70;3.50;;;9.40;99.90;;;;;;4998404;28;20180;-80
2023/03/14 08:30:12;;;;;;;3.60;3.40;;;9.40;99.90;;;;;;4980742;28;20247;-80
2023/03/14 08:32:38;;;;;;;3.77;3.57;;;9.50;99.90;;;;;;4998139;28;20200;-80
2023/03/14 08:35:05;;;;;;;3.90;3.67;;;9.60;99.90;;;;;;4997095;28;20227;-80
2023/03/14 08:37:35;;;;;;;3.70;3.50;;;9.60;99.90;;;;;;4997174;28;20180;-80
2023/03/14 08:40:00;;;;;;;4.97;4.37;;;9.70;99.90;;;;;;4979387;28;20676;-80
2023/03/14 08:42:26;;;;;;;4.30;4.00;;;9.70;99.90;;;;;;4979218;28;20176;-80
2023/03/14 08:44:52;;;;;;;4.13;3.73;;;9.70;99.90;;;;;;4979045;28;20192;-80
2023/03/14 08:47:19;;;;;;;4.87;4.23;;;9.70;99.90;;;;;;4978970;28;20574;-80
2023/03/14 08:49:45;;;;;;;4.60;4.20;;;9.70;99.90;;;;;;4996403;28;20554;-80
2023/03/14 08:52:11;;;;;;;5.10;4.30;;;9.70;99.90;;;;;;4995889;28;20180;-80
2023/03/14 08:54:37;;;;;;;4.37;4.07;;;9.60;99.90;;;;;;4996412;28;20216;-80
2023/03/14 08:57:03;;;;;;;4.22;3.92;;;9.60;99.90;;;;;;4997116;28;20223;-80
2023/03/14 08:59:28;;;;;;;4.40;4.00;;;9.60;99.90;;;;;;4980877;28;20268;-80
2023/03/14 09:01:54;;;;;;;4.10;3.83;;;9.60;99.90;;;;;;4997637;28;20177;-80
2023/03/14 09:04:20;;;;;;;4.13;3.83;;;9.70;99.90;;;;;;4980793;28;20177;-80
2023/03/14 09:06:46;;;;;;;4.80;4.30;;;9.70;99.90;;;;;;4980121;28;20204;-80
2023/03/14 09:09:13;;;;;;;4.20;3.90;;;9.70;99.90;;;;;;5000723;28;20187;-79
2023/03/14 09:11:39;;;;;;;4.50;4.10;;;9.70;99.90;;;;;;4983505;28;20227;-79
2023/03/14 09:14:05;;;;;;;4.23;3.93;;;9.70;99.90;;;;;;4981615;28;20687;-79
2023/03/14 09:16:32;;;;;;;4.23;3.93;;;9.80;99.90;;;;;;4999931;28;20199;-80
2023/03/14 09:18:59;;;;;;;3.87;3.47;;;9.90;99.90;;;;;;4982691;28;20224;-80
2023/03/14 09:21:27;;;;;;;4.53;4.23;;;10.00;99.90;;;;;;4983403;28;20181;-80
2023/03/14 09:23:53;;;;;;;4.60;3.60;;;10.00;99.90;;;;;;4983161;28;20557;-80
2023/03/14 09:26:18;;;;;;;4.18;3.88;;;10.10;99.90;;;;;;5000848;28;20196;-80
2023/03/14 09:28:44;;;;;;;4.20;3.90;;;10.20;99.90;;;;;;4983998;28;20191;-80
2023/03/14 09:31:11;;;;;;;4.13;3.90;;;10.20;99.90;;;;;;4998708;28;20184;-80
2023/03/14 09:33:37;;;;;;;4.20;3.80;;;10.30;99.90;;;;;;4984654;28;20641;-80
2023/03/14 09:36:03;;;;;;;3.60;3.40;;;10.40;99.90;;;;;;5003332;28;20204;-80
2023/03/14 09:38:29;;;;;;;4.30;3.90;;;10.40;99.90;;;;;;4985281;28;20208;-80
2023/03/14 09:40:58;;;;;;;4.43;4.10;;;10.30;99.90;;;;;;5001335;28;20184;-80
2023/03/14 09:43:26;;;;;;;4.33;4.03;;;10.30;99.90;;;;;;4984650;28;20177;-80
2023/03/14 09:45:52;;;;;;;4.33;3.93;;;10.20;99.90;;;;;;4982768;28;20201;-80
2023/03/14 09:48:26;;;;;;;4.43;4.13;;;10.20;99.90;;;;;;4983411;28;20246;-80
2023/03/14 09:50:54;;;;;;;5.77;4.30;;;10.20;99.90;;;;;;4984842;28;20645;-80
2023/03/14 09:53:44;;;;;;;4.70;4.30;;;10.20;99.90;;;;;;4983126;28;20264;-79
2023/03/14 09:56:24;;;;;;;4.07;3.67;;;10.10;99.90;;;;;;4982234;28;20275;-79
2023/03/14 09:59:03;;;;;;;4.17;3.23;;;9.80;99.90;;;;;;4999698;28;20153;-80
2023/03/14 10:01:31;;;;;;;3.53;3.13;;;9.40;99.90;;;;;;4983002;28;20226;-79
2023/03/14 10:04:02;;;;;;;3.63;3.20;;;9.10;99.90;;;;;;4982235;28;20192;-79
2023/03/14 10:06:30;;;;;;;3.37;3.17;;;9.00;99.90;;;;;;4999679;28;20208;-79
2023/03/14 10:08:56;;;;;;;3.93;3.60;;;8.90;99.90;;;;;;4998238;28;20181;-79
2023/03/14 10:11:24;;;;;;;3.50;3.30;;;8.80;99.90;;;;;;4982456;28;20188;-79
2023/03/14 10:14:12;;;;;;;3.53;3.33;;;8.60;99.90;;;;;;4998288;28;20196;-78
2023/03/14 10:16:43;;;;;;;3.40;3.23;;;8.50;99.90;;;;;;4998696;28;20721;-79
2023/03/14 10:19:17;;;;;;;3.30;3.10;;;8.40;99.90;;;;;;4998343;28;20161;-79
2023/03/14 10:21:43;;;;;;;3.43;3.20;;;8.30;99.90;;;;;;4981063;28;20259;-79
2023/03/14 10:24:33;;;;;;;3.77;3.47;;;8.20;99.90;;;;;;4998772;28;20202;-79
2023/03/14 10:27:05;;;;;;;4.47;4.10;;;8.10;99.90;;;;;;4999120;28;20196;-79
2023/03/14 10:29:33;;;;;;;3.60;3.40;;;8.00;99.90;;;;;;4999374;28;20208;-79
2023/03/14 10:32:05;;;;;;;3.77;3.50;;;8.00;99.90;;;;;;4998648;28;20185;-79
2023/03/14 10:34:36;;;;;;;3.60;3.40;;;7.90;99.90;;;;;;4982096;28;20215;-79
2023/03/14 10:37:06;;;;;;;3.97;3.77;;;7.80;99.90;;;;;;4981684;28;20235;-79
2023/03/14 10:39:45;;;;;;;4.27;3.97;;;7.70;99.90;;;;;;4996701;28;20271;-79
2023/03/14 10:42:31;;;;;;;4.40;4.10;;;7.60;99.90;;;;;;4980280;28;20629;-79
2023/03/14 10:45:00;;;;;;;4.60;4.30;;;7.50;99.90;;;;;;4981339;28;20208;-79
2023/03/14 10:47:30;;;;;;;4.43;4.13;;;7.50;99.90;;;;;;4998739;28;20228;-79
2023/03/14 10:50:06;;;;;;;4.37;4.00;;;7.50;99.90;;;;;;4982013;28;20180;-79
2023/03/14 10:52:32;;;;;;;5.13;4.20;;;7.40;99.90;;;;;;4998760;28;20171;-79
2023/03/14 10:55:01;;;;;;;4.00;3.70;;;7.40;99.90;;;;;;4980914;28;20688;-79
2023/03/14 10:57:27;;;;;;;4.87;4.40;;;7.30;99.90;;;;;;4998461;28;20188;-79
2023/03/14 10:59:56;;;;;;;4.30;4.00;;;7.30;99.90;;;;;;4980974;28;20183;-79
2023/03/14 11:02:28;;;;;;;4.97;4.57;;;7.20;99.90;;;;;;4998130;28;20191;-79
2023/03/14 11:05:16;;;;;;;4.70;4.30;;;7.10;99.90;;;;;;4998721;28;20168;-79
2023/03/14 11:07:43;;;;;;;4.93;4.53;;;7.10;99.90;;;;;;4998154;28;20176;-79
2023/03/14 11:10:20;;;;;;;4.47;4.07;;;7.10;99.90;;;;;;5000592;28;20188;-79
2023/03/14 11:13:02;;;;;;;5.00;4.50;;;7.10;99.90;;;;;;4982250;28;20181;-79
2023/03/14 11:15:48;;;;;;;4.93;4.50;;;7.10;99.90;;;;;;4998403;28;20213;-79
2023/03/14 11:18:45;;;;;;;4.77;4.40;;;7.10;99.90;;;;;;4998902;28;20531;-79
2023/03/14 11:21:30;;;;;;;5.83;4.13;;;7.00;99.90;;;;;;4995904;28;20222;-79
2023/03/14 11:24:01;;;;;;;4.93;4.50;;;6.90;99.90;;;;;;4997594;28;20211;-79
2023/03/14 11:26:56;;;;;;;5.43;5.00;;;6.80;99.90;;;;;;4996368;28;20239;-79
2023/03/14 11:29:40;;;;;;;7.70;5.87;;;6.80;99.90;;;;;;4997181;28;20177;-79
2023/03/14 11:32:24;;;;;;;6.37;5.03;;;6.70;99.90;;;;;;4996224;28;20160;-79
2023/03/14 11:34:53;;;;;;;4.87;4.40;;;6.60;99.90;;;;;;4979175;28;20323;-78
2023/03/14 11:37:25;;;;;;;4.70;4.40;;;6.50;99.90;;;;;;4980542;28;20204;-79
2023/03/14 11:39:59;;;;;;;5.60;5.17;;;6.40;99.90;;;;;;4998753;28;20165;-79
2023/03/14 11:42:26;;;;;;;5.10;4.70;;;6.30;99.90;;;;;;4996455;28;20231;-78
2023/03/14 11:44:55;;;;;;;4.60;4.20;;;6.20;99.90;;;;;;4981491;28;20181;-78
2023/03/14 11:47:41;;;;;;;4.47;4.17;;;6.20;99.90;;;;;;4982342;28;20204;-79
2023/03/14 11:50:28;;;;;;;4.50;4.10;;;6.00;99.90;;;;;;4982855;28;20176;-79
2023/03/14 11:53:04;;;;;;;4.30;4.00;;;5.90;99.90;;;;;;4999720;28;20165;-79
2023/03/14 11:55:32;;;;;;;4.73;4.33;;;5.90;99.90;;;;;;4998765;28;20215;-79
2023/03/14 11:58:29;;;;;;;4.30;4.00;;;5.90;99.90;;;;;;4981246;28;20212;-79
2023/03/14 12:00:57;;;;;;;4.27;4.00;;;5.90;99.90;;;;;;4982974;28;20177;-79
2023/03/14 12:03:33;;;;;;;6.30;4.27;;;5.80;99.90;;;;;;4980309;28;20246;-79
2023/03/14 12:06:18;;;;;;;4.70;4.30;;;5.90;99.90;;;;;;4995575;28;20331;-80
2023/03/14 12:08:57;;;;;;;4.80;4.40;;;5.90;99.90;;;;;;4997129;28;20200;-79
2023/03/14 12:11:31;;;;;;;4.50;4.20;;;5.80;99.90;;;;;;4996876;28;20673;-80
2023/03/14 12:13:57;;;;;;;4.30;4.00;;;5.80;99.90;;;;;;4997027;28;20207;-79
2023/03/14 12:16:23;;;;;;;4.53;4.23;;;5.70;99.90;;;;;;4996386;28;20572;-79
2023/03/14 12:18:50;;;;;;;4.60;4.07;;;5.80;99.90;;;;;;4995253;28;20642;-79
2023/03/14 12:21:16;;;;;;;5.00;4.00;;;5.70;99.90;;;;;;4996624;28;20656;-79
2023/03/14 12:23:49;;;;;;;5.17;4.67;;;5.60;99.90;;;;;;4997534;28;20196;-79
2023/03/14 12:26:18;;;;;;;5.40;4.20;;;5.60;99.90;;;;;;4996608;28;20239;-79
2023/03/14 12:29:08;;;;;;;4.77;4.10;;;5.60;99.90;;;;;;4997041;28;20187;-79
2023/03/14 12:31:48;;;;;;;4.77;4.30;;;5.60;99.90;;;;;;4991324;28;20224;-79
2023/03/14 12:34:13;;;;;;;4.60;4.30;;;5.60;99.90;;;;;;4980637;28;20207;-79
2023/03/14 12:36:51;;;;;;;4.97;4.30;;;5.70;99.90;;;;;;4997511;28;20192;-80
2023/03/14 12:39:54;;;;;;;4.93;4.20;;;5.70;99.90;;;;;;4995558;28;20172;-80
2023/03/14 12:42:29;;;;;;;5.70;4.50;;;5.70;99.90;;;;;;4997581;28;20231;-80
2023/03/14 12:45:20;;;;;;;4.77;4.40;;;5.80;99.90;;;;;;5000843;28;20627;-79
2023/03/14 12:47:53;;;;;;;12.00;4.43;;;5.90;99.90;;;;;;5002018;28;20164;-80
2023/03/14 12:50:24;;;;;;;5.97;4.40;;;6.10;99.90;;;;;;5004349;28;20168;-80
2023/03/14 12:53:07;;;;;;;4.97;4.47;;;6.40;99.90;;;;;;5000128;28;20172;-80
2023/03/14 12:55:51;;;;;;;6.60;4.00;;;6.70;99.90;;;;;;4982882;28;20227;-80
2023/03/14 12:58:31;;;;;;;11.90;4.53;;;7.00;99.90;;;;;;4999289;28;20173;-80
2023/03/14 13:01:01;;;;;;;5.17;4.40;;;7.10;99.90;;;;;;4999169;28;20187;-80
2023/03/14 13:03:42;;;;;;;5.97;4.10;;;7.10;99.90;;;;;;5000808;28;20172;-80